createdAt,value
2023-01-01T00:04:17.494Z,9.82
2023-01-01T00:09:34.345Z,9.77
2023-01-01T00:14:34.483Z,9.76
2023-01-01T00:19:33.256Z,9.76
2023-01-01T00:24:32.137Z,9.74
2023-01-01T00:29:30.884Z,9.62
2023-01-01T00:34:31.068Z,9.64
2023-01-01T00:39:29.832Z,9.66
2023-01-01T00:44:28.597Z,9.57
2023-01-01T00:49:27.968Z,9.62
2023-01-01T00:54:28.154Z,9.57
2023-01-01T00:59:28.882Z,9.58
2023-01-01T01:04:27.975Z,9.59
2023-01-01T01:09:28.135Z,9.62
2023-01-01T01:14:26.899Z,9.59
2023-01-01T01:19:26.839Z,9.58
2023-01-01T01:24:25.588Z,9.62
2023-01-01T01:29:25.864Z,9.64
2023-01-01T01:34:28.099Z,9.65
2023-01-01T01:39:27.353Z,9.65
2023-01-01T01:45:02.550Z,9.65
2023-01-01T01:50:08.218Z,9.56
2023-01-01T01:55:09.462Z,9.53
2023-01-01T02:00:11.645Z,9.53
2023-01-01T02:05:13.084Z,9.49
2023-01-01T02:10:12.051Z,9.52
2023-01-01T02:15:11.330Z,9.46
2023-01-01T02:20:24.189Z,9.45
2023-01-01T02:25:37.028Z,9.41
2023-01-01T02:30:40.463Z,9.35
2023-01-01T02:35:42.671Z,9.45
2023-01-01T02:40:46.536Z,9.21
2023-01-01T02:45:46.729Z,9.04
2023-01-01T02:50:45.894Z,8.99
2023-01-01T02:55:55.913Z,8.90
2023-01-01T03:01:05.139Z,8.77
2023-01-01T03:06:27.251Z,8.67
2023-01-01T03:11:33.826Z,8.60
2023-01-01T03:16:39.695Z,8.46
2023-01-01T03:21:43.717Z,8.45
2023-01-01T03:26:44.940Z,8.40
2023-01-01T03:31:47.332Z,8.40
2023-01-01T03:36:50.464Z,8.38
2023-01-01T03:41:54.298Z,8.28
2023-01-01T03:46:55.150Z,8.27
2023-01-01T03:52:20.559Z,8.21
2023-01-01T03:57:24.878Z,7.92
2023-01-01T04:02:33.643Z,7.75
2023-01-01T04:07:32.820Z,7.81
2023-01-01T04:12:32.119Z,7.89
2023-01-01T04:17:32.236Z,7.95
2023-01-01T04:22:31.019Z,7.91
2023-01-01T04:27:29.973Z,7.92
2023-01-01T04:32:28.866Z,7.77
2023-01-01T04:37:29.767Z,7.78
2023-01-01T04:42:28.510Z,7.80
2023-01-01T04:47:28.082Z,7.87
2023-01-01T04:52:26.864Z,7.91
2023-01-01T04:57:26.997Z,7.96
2023-01-01T05:02:26.008Z,7.96
2023-01-01T05:07:24.800Z,8.02
2023-01-01T05:12:23.551Z,7.84
2023-01-01T05:17:23.718Z,7.83
2023-01-01T05:22:22.535Z,7.84
2023-01-01T05:27:21.389Z,7.95
2023-01-01T05:32:20.241Z,7.84
2023-01-01T05:37:20.451Z,7.61
2023-01-01T05:42:20.209Z,7.81
2023-01-01T05:47:19.102Z,8.00
2023-01-01T05:52:21.595Z,7.96
2023-01-01T05:57:26.503Z,8.09
2023-01-01T06:02:25.444Z,8.25
2023-01-01T06:07:24.502Z,8.25
2023-01-01T06:12:23.340Z,8.27
2023-01-01T06:17:23.529Z,8.38
2023-01-01T06:22:22.274Z,8.37
2023-01-01T06:27:21.016Z,8.38
2023-01-01T06:32:19.710Z,8.44
2023-01-01T06:37:21.586Z,8.45
2023-01-01T06:42:20.441Z,8.43
2023-01-01T06:47:19.248Z,8.31
2023-01-01T06:52:21.455Z,8.36
2023-01-01T06:57:20.321Z,8.40
2023-01-01T07:02:19.199Z,8.44
2023-01-01T07:07:18.148Z,8.49
2023-01-01T07:12:18.724Z,8.45
2023-01-01T07:17:17.812Z,8.57
2023-01-01T07:22:18.663Z,8.69
2023-01-01T07:27:18.975Z,8.75
2023-01-01T07:32:17.761Z,8.80
2023-01-01T07:37:16.571Z,8.73
2023-01-01T07:42:15.432Z,9.04
2023-01-01T07:47:25.295Z,9.00
2023-01-01T07:52:24.121Z,9.32
2023-01-01T07:57:22.949Z,9.57
2023-01-01T08:02:23.292Z,9.93
2023-01-01T08:07:22.200Z,10.10
2023-01-01T08:12:21.011Z,10.31
2023-01-01T08:17:20.035Z,10.22
2023-01-01T08:22:20.384Z,10.34
2023-01-01T08:27:19.437Z,10.62
2023-01-01T08:32:18.287Z,10.76
2023-01-01T08:37:17.140Z,10.93
2023-01-01T08:42:17.271Z,11.10
2023-01-01T08:47:20.795Z,11.23
2023-01-01T08:52:20.378Z,11.25
2023-01-01T08:57:20.510Z,11.50
2023-01-01T09:02:19.332Z,11.69
2023-01-01T09:07:18.326Z,12.14
2023-01-01T09:12:17.997Z,12.47
2023-01-01T09:17:18.231Z,13.00
2023-01-01T09:22:16.990Z,13.18
2023-01-01T09:27:15.888Z,13.62
2023-01-01T09:32:14.712Z,14.05
2023-01-01T09:37:14.846Z,14.43
2023-01-01T09:42:28.545Z,14.76
2023-01-01T09:47:31.634Z,15.02
2023-01-01T09:52:41.199Z,14.90
2023-01-01T09:57:40.832Z,15.40
2023-01-01T10:02:53.620Z,16.02
2023-01-01T10:08:04.488Z,16.36
2023-01-01T10:13:16.814Z,16.16
2023-01-01T10:18:21.173Z,16.74
2023-01-01T10:23:25.686Z,16.67
2023-01-01T10:28:31.635Z,16.92
2023-01-01T10:33:30.489Z,17.16
2023-01-01T10:38:30.783Z,17.05
2023-01-01T10:43:29.551Z,17.01
2023-01-01T10:48:30.773Z,17.10
2023-01-01T10:53:33.344Z,17.34
2023-01-01T10:58:50.977Z,17.86
2023-01-01T11:04:01.489Z,18.56
2023-01-01T11:09:04.566Z,18.86
2023-01-01T11:14:06.404Z,18.53
2023-01-01T11:19:07.360Z,18.68
2023-01-01T11:24:20.426Z,19.19
2023-01-01T11:29:25.017Z,19.33
2023-01-01T11:34:37.499Z,20.29
2023-01-01T11:39:39.129Z,19.98
2023-01-01T11:44:42.262Z,20.19
2023-01-01T11:49:41.093Z,20.62
2023-01-01T11:54:44.587Z,20.13
2023-01-01T11:59:48.759Z,19.73
2023-01-01T12:04:51.729Z,19.64
2023-01-01T12:10:01.607Z,20.07
2023-01-01T12:15:05.558Z,19.95
2023-01-01T12:20:12.347Z,19.81
2023-01-01T12:25:17.567Z,19.77
2023-01-01T12:30:22.593Z,19.48
2023-01-01T12:35:32.157Z,19.71
2023-01-01T12:40:48.289Z,20.46
2023-01-01T12:46:25.788Z,20.80
2023-01-01T12:51:34.181Z,20.52
2023-01-01T12:56:39.765Z,20.60
2023-01-01T13:01:40.453Z,20.67
2023-01-01T13:06:43.978Z,20.76
2023-01-01T13:11:48.811Z,20.72
2023-01-01T13:16:55.188Z,20.71
2023-01-01T13:21:54.178Z,21.08
2023-01-01T13:26:55.085Z,20.93
2023-01-01T13:32:08.372Z,20.69
2023-01-01T13:37:28.304Z,20.60
2023-01-01T13:42:43.048Z,20.65
2023-01-01T13:48:01.637Z,20.57
2023-01-01T13:53:17.286Z,20.87
2023-01-01T13:58:55.933Z,21.01
2023-01-01T14:03:57.525Z,21.33
2023-01-01T14:09:03.906Z,21.46
2023-01-01T14:14:04.158Z,21.41
2023-01-01T14:19:03.775Z,21.39
2023-01-01T14:24:05.418Z,21.43
2023-01-01T14:29:08.935Z,21.45
2023-01-01T14:34:15.430Z,21.36
2023-01-01T14:39:28.074Z,21.01
2023-01-01T14:44:34.660Z,20.65
2023-01-01T14:49:36.023Z,20.34
2023-01-01T14:54:38.299Z,19.99
2023-01-01T14:59:47.369Z,19.62
2023-01-01T15:04:46.132Z,19.36
2023-01-01T15:09:44.995Z,19.11
2023-01-01T15:14:46.532Z,18.82
2023-01-01T15:19:48.106Z,18.43
2023-01-01T15:24:50.362Z,18.22
2023-01-01T15:29:51.882Z,17.98
2023-01-01T15:34:55.254Z,17.79
2023-01-01T15:39:57.596Z,17.60
2023-01-01T15:44:57.727Z,17.42
2023-01-01T15:50:09.101Z,17.24
2023-01-01T15:55:08.426Z,17.11
2023-01-01T16:00:20.244Z,16.95
2023-01-01T16:05:22.883Z,16.82
2023-01-01T16:10:21.740Z,16.68
2023-01-01T16:15:21.963Z,16.52
2023-01-01T16:20:22.803Z,16.35
2023-01-01T16:25:23.532Z,16.21
2023-01-01T16:30:29.195Z,16.12
2023-01-01T16:35:27.983Z,16.00
2023-01-01T16:40:26.820Z,15.89
2023-01-01T16:45:27.041Z,15.75
2023-01-01T16:50:27.186Z,15.62
2023-01-01T16:55:26.871Z,15.47
2023-01-01T17:00:27.353Z,15.33
2023-01-01T17:05:26.212Z,15.23
2023-01-01T17:10:25.017Z,15.09
2023-01-01T17:15:24.585Z,14.98
2023-01-01T17:20:24.997Z,14.91
2023-01-01T17:25:24.875Z,14.84
2023-01-01T17:30:23.617Z,14.79
2023-01-01T17:35:22.483Z,14.70
2023-01-01T17:40:22.929Z,14.64
2023-01-01T17:45:22.608Z,14.57
2023-01-01T17:50:23.402Z,14.50
2023-01-01T17:55:23.675Z,14.45
2023-01-01T18:00:22.653Z,14.37
2023-01-01T18:05:23.494Z,14.32
2023-01-01T18:10:23.638Z,14.31
2023-01-01T18:15:22.773Z,14.29
2023-01-01T18:20:21.677Z,14.26
2023-01-01T18:25:21.638Z,14.23
2023-01-01T18:30:21.970Z,14.17
2023-01-01T18:35:20.912Z,14.09
2023-01-01T18:40:19.790Z,14.01
2023-01-01T18:45:22.141Z,13.91
2023-01-01T18:50:25.885Z,13.86
2023-01-01T18:55:28.184Z,13.83
2023-01-01T19:00:31.326Z,13.74
2023-01-01T19:05:30.779Z,13.70
2023-01-01T19:10:37.192Z,13.54
2023-01-01T19:15:37.651Z,13.49
2023-01-01T19:20:36.481Z,13.46
2023-01-01T19:25:40.230Z,13.40
2023-01-01T19:30:40.556Z,13.33
2023-01-01T19:35:39.483Z,13.25
2023-01-01T19:40:38.282Z,13.20
2023-01-01T19:45:37.249Z,13.15
2023-01-01T19:50:40.771Z,13.12
2023-01-01T19:55:47.416Z,13.08
2023-01-01T20:00:48.924Z,13.01
2023-01-01T20:05:56.981Z,12.95
2023-01-01T20:10:58.374Z,12.89
2023-01-01T20:16:15.970Z,12.85
2023-01-01T20:21:42.627Z,12.79
2023-01-01T20:26:45.725Z,12.74
2023-01-01T20:31:51.317Z,12.68
2023-01-01T20:37:11.398Z,12.67
2023-01-01T20:42:12.502Z,12.64
2023-01-01T20:47:11.490Z,12.63
2023-01-01T20:52:13.344Z,12.62
2023-01-01T20:57:13.690Z,12.60
2023-01-01T21:02:13.685Z,12.57
2023-01-01T21:07:14.169Z,12.52
2023-01-01T21:12:13.384Z,12.48
2023-01-01T21:17:22.337Z,12.44
2023-01-01T21:22:22.779Z,12.38
2023-01-01T21:27:25.615Z,12.32
2023-01-01T21:32:26.245Z,12.28
2023-01-01T21:37:47.441Z,12.25
2023-01-01T21:42:46.308Z,12.23
2023-01-01T21:47:45.380Z,12.21
2023-01-01T21:52:47.628Z,12.17
2023-01-01T21:57:46.786Z,12.09
2023-01-01T22:02:48.329Z,12.04
2023-01-01T22:08:04.111Z,12.01
2023-01-01T22:13:03.269Z,11.98
2023-01-01T22:18:18.035Z,11.95
2023-01-01T22:23:43.325Z,11.92
2023-01-01T22:28:44.946Z,11.84
2023-01-01T22:33:47.291Z,11.79
2023-01-01T22:38:47.517Z,11.71
2023-01-01T22:43:49.539Z,11.65
2023-01-01T22:48:54.210Z,11.58
2023-01-01T22:53:58.181Z,11.54
2023-01-01T22:58:58.504Z,11.52
2023-01-01T23:03:57.425Z,11.50
2023-01-01T23:08:58.265Z,11.46
2023-01-01T23:14:14.376Z,11.43
2023-01-01T23:19:13.214Z,11.41
2023-01-01T23:24:16.797Z,11.38
2023-01-01T23:29:17.092Z,11.35
2023-01-01T23:34:16.672Z,11.33
2023-01-01T23:39:16.936Z,11.31
2023-01-01T23:44:15.831Z,11.28
2023-01-01T23:49:15.203Z,11.20
2023-01-01T23:54:13.995Z,11.16
2023-01-01T23:59:15.521Z,11.12
